createdAt,value
2017-11-23T00:00:20.428Z,87.13
2017-11-23T00:01:20.403Z,87.61
2017-11-23T00:02:20.356Z,88.42
2017-11-23T00:03:20.331Z,89.18
2017-11-23T00:04:20.526Z,89.00
2017-11-23T00:05:20.245Z,88.80
2017-11-23T00:06:20.209Z,87.47
2017-11-23T00:07:20.168Z,87.66
2017-11-23T00:08:20.133Z,88.04
2017-11-23T00:09:20.545Z,88.52
2017-11-23T00:10:20.054Z,89.94
2017-11-23T00:11:20.022Z,90.23
2017-11-23T00:12:19.984Z,91.08
2017-11-23T00:13:19.945Z,91.37
2017-11-23T00:14:19.916Z,91.66
2017-11-23T00:15:19.876Z,91.99
2017-11-23T00:16:19.832Z,91.89
2017-11-23T00:17:19.800Z,92.85
2017-11-23T00:18:20.664Z,93.04
2017-11-23T00:19:19.722Z,93.89
2017-11-23T00:20:19.693Z,94.56
2017-11-23T00:21:19.650Z,94.93
2017-11-23T00:22:19.614Z,95.51
2017-11-23T00:23:19.573Z,95.89
2017-11-23T00:24:19.537Z,95.70
2017-11-23T00:25:19.499Z,96.60
2017-11-23T00:26:19.459Z,96.41
2017-11-23T00:27:19.423Z,96.79
2017-11-23T00:28:19.392Z,97.07
2017-11-23T00:29:19.350Z,96.79
2017-11-23T00:30:19.312Z,96.79
2017-11-23T00:31:19.271Z,96.41
2017-11-23T00:32:19.243Z,95.65
2017-11-23T00:33:19.222Z,96.12
2017-11-23T00:34:19.164Z,97.07
2017-11-23T00:35:19.136Z,96.79
2017-11-23T00:36:19.121Z,96.98
2017-11-23T00:37:19.050Z,96.41
2017-11-23T00:38:19.018Z,96.31
2017-11-23T00:39:18.986Z,96.22
2017-11-23T00:40:18.930Z,96.50
2017-11-23T00:41:18.901Z,96.50
2017-11-23T00:42:18.859Z,95.79
2017-11-23T00:43:18.836Z,95.41
2017-11-23T00:44:19.395Z,95.51
2017-11-23T00:45:18.756Z,95.41
2017-11-23T00:46:18.714Z,95.32
2017-11-23T00:47:18.684Z,95.12
2017-11-23T00:48:18.630Z,95.70
2017-11-23T00:49:18.609Z,95.03
2017-11-23T00:50:18.557Z,94.74
2017-11-23T00:51:18.528Z,95.22
2017-11-23T00:52:18.493Z,94.93
2017-11-23T00:53:18.438Z,94.65
2017-11-23T00:54:18.413Z,94.56
2017-11-23T00:55:18.375Z,94.56
2017-11-23T00:56:18.328Z,94.84
2017-11-23T00:57:18.292Z,93.60
2017-11-23T00:58:18.248Z,93.99
2017-11-23T00:59:18.219Z,94.08
2017-11-23T01:00:18.174Z,93.79
2017-11-23T01:01:18.140Z,93.08
2017-11-23T01:02:18.096Z,93.51
2017-11-23T01:03:18.072Z,93.41
2017-11-23T01:04:18.036Z,93.08
2017-11-23T01:05:17.986Z,93.04
2017-11-23T01:06:17.950Z,93.04
2017-11-23T01:07:17.914Z,92.75
2017-11-23T01:08:17.872Z,92.94
2017-11-23T01:09:17.836Z,92.85
2017-11-23T01:10:17.814Z,92.56
2017-11-23T01:11:17.775Z,93.18
2017-11-23T01:12:17.729Z,92.66
2017-11-23T01:13:17.690Z,92.61
2017-11-23T01:14:18.435Z,92.08
2017-11-23T01:15:17.615Z,93.13
2017-11-23T01:16:17.578Z,92.94
2017-11-23T01:17:17.538Z,92.08
2017-11-23T01:18:17.504Z,93.04
2017-11-23T01:19:17.466Z,92.94
2017-11-23T01:20:17.427Z,93.32
2017-11-23T01:21:17.386Z,93.32
2017-11-23T01:22:17.354Z,93.70
2017-11-23T01:23:17.312Z,93.99
2017-11-23T01:24:17.275Z,94.56
2017-11-23T01:25:17.239Z,94.46
2017-11-23T01:26:17.205Z,94.46
2017-11-23T01:27:17.164Z,94.65
2017-11-23T01:28:17.127Z,94.74
2017-11-23T01:29:17.087Z,94.65
2017-11-23T01:30:17.049Z,95.22
2017-11-23T01:31:17.009Z,95.12
2017-11-23T01:32:16.975Z,95.12
2017-11-23T01:33:16.936Z,95.41
2017-11-23T01:34:16.900Z,96.08
2017-11-23T01:35:16.867Z,96.08
2017-11-23T01:36:16.875Z,96.36
2017-11-23T01:37:16.782Z,96.55
2017-11-23T01:38:16.748Z,96.45
2017-11-23T01:39:16.717Z,96.26
2017-11-23T01:40:16.674Z,96.45
2017-11-23T01:41:16.633Z,96.84
2017-11-23T01:42:16.607Z,96.45
2017-11-23T01:43:16.569Z,96.84
2017-11-23T01:44:16.529Z,96.45
2017-11-23T01:45:16.485Z,96.36
2017-11-23T01:46:16.449Z,96.45
2017-11-23T01:47:16.423Z,96.26
2017-11-23T01:48:16.370Z,96.45
2017-11-23T01:49:16.332Z,95.98
2017-11-23T01:50:16.298Z,95.51
2017-11-23T01:51:16.261Z,95.51
2017-11-23T01:52:16.236Z,95.79
2017-11-23T01:53:16.185Z,96.08
2017-11-23T01:54:16.144Z,95.79
2017-11-23T01:55:16.113Z,96.08
2017-11-23T01:56:16.078Z,96.17
2017-11-23T01:57:16.030Z,96.17
2017-11-23T01:58:16.001Z,96.26
2017-11-23T01:59:15.961Z,96.55
2017-11-23T02:00:15.935Z,96.45
2017-11-23T02:01:15.885Z,96.36
2017-11-23T02:02:15.865Z,95.32
2017-11-23T02:03:15.914Z,94.74
2017-11-23T02:04:15.781Z,93.99
2017-11-23T02:05:15.916Z,94.08
2017-11-23T02:06:15.694Z,93.18
2017-11-23T02:07:15.682Z,91.75
2017-11-23T02:08:15.624Z,90.08
2017-11-23T02:09:15.583Z,88.70
2017-11-23T02:10:15.918Z,87.08
2017-11-23T02:11:15.508Z,85.51
2017-11-23T02:12:15.470Z,84.27
2017-11-23T02:13:15.432Z,82.37
2017-11-23T02:14:15.397Z,81.26
2017-11-23T02:15:15.361Z,80.50
2017-11-23T02:16:15.318Z,80.41
2017-11-23T02:17:15.278Z,79.27
2017-11-23T02:18:15.245Z,78.88
2017-11-23T02:19:15.218Z,78.98
2017-11-23T02:20:15.175Z,78.69
2017-11-23T02:21:15.138Z,79.07
2017-11-23T02:22:15.099Z,79.55
2017-11-23T02:23:15.915Z,80.41
2017-11-23T02:24:15.030Z,80.41
2017-11-23T02:25:14.987Z,81.32
2017-11-23T02:26:14.952Z,82.08
2017-11-23T02:27:14.920Z,82.56
2017-11-23T02:28:14.880Z,82.37
2017-11-23T02:29:14.844Z,82.18
2017-11-23T02:30:14.817Z,81.98
2017-11-23T02:31:14.776Z,82.46
2017-11-23T02:32:15.548Z,81.79
2017-11-23T02:33:14.713Z,82.46
2017-11-23T02:34:14.692Z,82.08
2017-11-23T02:35:14.623Z,82.93
2017-11-23T02:36:14.587Z,83.22
2017-11-23T02:37:14.561Z,82.27
2017-11-23T02:38:14.511Z,82.46
2017-11-23T02:39:14.479Z,83.13
2017-11-23T02:40:14.445Z,82.27
2017-11-23T02:41:14.838Z,82.37
2017-11-23T02:42:14.369Z,82.65
2017-11-23T02:43:14.333Z,82.37
2017-11-23T02:44:14.296Z,82.69
2017-11-23T02:45:14.286Z,82.46
2017-11-23T02:46:14.253Z,82.65
2017-11-23T02:47:14.191Z,81.84
2017-11-23T02:48:14.151Z,81.93
2017-11-23T02:49:14.114Z,82.31
2017-11-23T02:50:14.073Z,82.60
2017-11-23T02:51:14.039Z,81.84
2017-11-23T02:52:14.003Z,82.31
2017-11-23T02:53:13.983Z,83.45
2017-11-23T02:54:13.931Z,83.70
2017-11-23T02:55:13.921Z,83.26
2017-11-23T02:56:13.862Z,83.45
2017-11-23T02:57:13.821Z,83.22
2017-11-23T02:58:13.783Z,82.84
2017-11-23T02:59:13.767Z,83.26
2017-11-23T03:00:13.731Z,83.41
2017-11-23T03:01:13.678Z,84.46
2017-11-23T03:02:13.637Z,84.46
2017-11-23T03:03:13.609Z,83.98
2017-11-23T03:04:13.566Z,84.65
2017-11-23T03:05:13.531Z,84.65
2017-11-23T03:06:13.736Z,85.03
2017-11-23T03:07:13.457Z,85.13
2017-11-23T03:08:13.427Z,86.27
2017-11-23T03:09:13.389Z,86.08
2017-11-23T03:10:13.348Z,86.27
2017-11-23T03:11:13.313Z,85.70
2017-11-23T03:12:13.290Z,85.13
2017-11-23T03:13:13.267Z,85.60
2017-11-23T03:14:13.218Z,86.65
2017-11-23T03:15:13.167Z,86.94
2017-11-23T03:16:13.132Z,86.55
2017-11-23T03:17:13.090Z,86.94
2017-11-23T03:18:13.056Z,87.23
2017-11-23T03:19:13.020Z,86.94
2017-11-23T03:20:12.985Z,88.08
2017-11-23T03:21:12.943Z,87.23
2017-11-23T03:22:12.918Z,87.60
2017-11-23T03:23:12.879Z,87.56
2017-11-23T03:24:12.853Z,87.94
2017-11-23T03:25:12.811Z,87.51
2017-11-23T03:26:12.771Z,87.98
2017-11-23T03:27:12.727Z,88.18
2017-11-23T03:28:12.686Z,88.99
2017-11-23T03:29:12.653Z,89.18
2017-11-23T03:30:12.626Z,89.65
2017-11-23T03:31:12.582Z,90.03
2017-11-23T03:32:12.542Z,89.75
2017-11-23T03:33:12.506Z,90.13
2017-11-23T03:34:12.477Z,90.22
2017-11-23T03:35:12.441Z,90.70
2017-11-23T03:36:12.393Z,90.99
2017-11-23T03:37:12.358Z,90.70
2017-11-23T03:38:12.322Z,90.51
2017-11-23T03:39:12.281Z,90.61
2017-11-23T03:40:12.248Z,91.27
2017-11-23T03:41:12.212Z,91.17
2017-11-23T03:42:12.172Z,90.89
2017-11-23T03:43:12.137Z,90.70
2017-11-23T03:44:12.105Z,90.99
2017-11-23T03:45:12.076Z,91.27
2017-11-23T03:46:12.040Z,90.61
2017-11-23T03:47:11.994Z,90.03
2017-11-23T03:48:11.953Z,90.70
2017-11-23T03:49:11.923Z,90.89
2017-11-23T03:50:11.875Z,90.22
2017-11-23T03:51:11.856Z,90.13
2017-11-23T03:52:11.801Z,90.70
2017-11-23T03:53:11.791Z,91.17
2017-11-23T03:54:11.740Z,90.61
2017-11-23T03:55:11.698Z,90.89
2017-11-23T03:56:11.666Z,89.75
2017-11-23T03:57:11.616Z,90.13
2017-11-23T03:58:11.586Z,89.18
2017-11-23T03:59:11.548Z,89.37
2017-11-23T04:00:11.510Z,89.94
2017-11-23T04:01:11.472Z,89.94
2017-11-23T04:02:11.453Z,88.89
2017-11-23T04:03:11.399Z,89.84
2017-11-23T04:04:11.364Z,90.22
2017-11-23T04:05:11.350Z,90.22
2017-11-23T04:06:11.293Z,89.32
2017-11-23T04:07:11.251Z,89.03
2017-11-23T04:08:11.217Z,88.56
2017-11-23T04:09:11.179Z,88.56
2017-11-23T04:10:11.145Z,87.70
2017-11-23T04:11:11.133Z,88.08
2017-11-23T04:12:11.080Z,87.89
2017-11-23T04:13:11.037Z,87.89
2017-11-23T04:14:11.004Z,87.32
2017-11-23T04:15:10.976Z,86.75
2017-11-23T04:16:10.926Z,86.65
2017-11-23T04:17:10.909Z,86.75
2017-11-23T04:18:10.852Z,85.99
2017-11-23T04:19:10.813Z,86.32
2017-11-23T04:20:10.780Z,85.99
2017-11-23T04:21:10.741Z,85.46
2017-11-23T04:22:10.704Z,84.03
2017-11-23T04:23:10.678Z,82.98
2017-11-23T04:24:10.631Z,82.89
2017-11-23T04:25:10.598Z,83.17
2017-11-23T04:26:10.567Z,82.69
2017-11-23T04:27:10.537Z,82.31
2017-11-23T04:28:10.484Z,82.41
2017-11-23T04:29:10.449Z,82.69
2017-11-23T04:30:10.421Z,83.17
2017-11-23T04:31:10.377Z,83.17
2017-11-23T04:32:10.342Z,83.55
2017-11-23T04:33:10.308Z,84.03
2017-11-23T04:34:10.268Z,83.93
2017-11-23T04:35:10.230Z,84.12
2017-11-23T04:36:10.195Z,82.31
2017-11-23T04:37:10.160Z,82.60
2017-11-23T04:38:10.126Z,82.31
2017-11-23T04:39:10.091Z,82.41
2017-11-23T04:40:10.052Z,82.12
2017-11-23T04:41:10.016Z,81.78
2017-11-23T04:42:09.977Z,81.49
2017-11-23T04:43:09.940Z,81.21
2017-11-23T04:44:09.907Z,81.88
2017-11-23T04:45:09.883Z,81.21
2017-11-23T04:46:09.836Z,81.21
2017-11-23T04:47:09.799Z,81.21
2017-11-23T04:48:09.766Z,81.02
2017-11-23T04:49:09.727Z,81.40
2017-11-23T04:50:09.692Z,80.92
2017-11-23T04:51:09.655Z,81.12
2017-11-23T04:52:09.729Z,81.40
2017-11-23T04:53:09.583Z,80.54
2017-11-23T04:54:09.547Z,81.40
2017-11-23T04:55:09.512Z,80.64
2017-11-23T04:56:09.475Z,80.64
2017-11-23T04:57:09.440Z,79.49
2017-11-23T04:58:09.413Z,79.02
2017-11-23T04:59:09.367Z,79.88
2017-11-23T05:00:09.331Z,79.97
2017-11-23T05:01:09.299Z,78.83
2017-11-23T05:02:09.260Z,79.59
2017-11-23T05:03:09.224Z,79.30
2017-11-23T05:04:09.190Z,79.78
2017-11-23T05:05:09.330Z,79.02
2017-11-23T05:06:09.115Z,79.15
2017-11-23T05:07:09.080Z,78.39
2017-11-23T05:08:09.040Z,78.86
2017-11-23T05:09:09.008Z,78.39
2017-11-23T05:10:08.976Z,77.91
2017-11-23T05:11:08.947Z,78.39
2017-11-23T05:12:08.900Z,77.25
2017-11-23T05:13:08.865Z,77.91
2017-11-23T05:14:08.830Z,78.49
2017-11-23T05:15:08.796Z,78.20
2017-11-23T05:16:08.762Z,78.49
2017-11-23T05:17:08.722Z,79.15
2017-11-23T05:18:08.688Z,79.35
2017-11-23T05:19:08.651Z,78.58
2017-11-23T05:20:08.614Z,78.67
2017-11-23T05:21:08.579Z,77.82
2017-11-23T05:22:08.544Z,78.10
2017-11-23T05:23:08.509Z,78.30
2017-11-23T05:24:08.479Z,77.82
2017-11-23T05:25:08.436Z,78.39
2017-11-23T05:26:01.474Z,78.67
2017-11-23T05:27:01.403Z,79.06
2017-11-23T05:28:01.368Z,79.35
2017-11-23T05:29:01.332Z,78.77
2017-11-23T05:30:01.297Z,79.15
2017-11-23T05:31:01.262Z,78.96
2017-11-23T05:32:01.226Z,78.96
2017-11-23T05:33:01.187Z,79.44
2017-11-23T05:34:01.157Z,79.59
2017-11-23T05:35:01.118Z,78.86
2017-11-23T05:36:01.082Z,79.30
2017-11-23T05:37:01.047Z,79.59
2017-11-23T05:38:01.060Z,80.16
2017-11-23T05:39:00.988Z,79.40
2017-11-23T05:40:00.939Z,79.78
2017-11-23T05:41:00.904Z,80.44
2017-11-23T05:42:00.868Z,80.35
2017-11-23T05:43:00.832Z,81.21
2017-11-23T05:44:00.797Z,80.83
2017-11-23T05:45:00.760Z,81.12
2017-11-23T05:46:00.725Z,80.73
2017-11-23T05:47:00.689Z,81.02
2017-11-23T05:48:00.653Z,80.73
2017-11-23T05:49:00.617Z,81.02
2017-11-23T05:50:00.582Z,80.64
2017-11-23T05:51:00.542Z,81.21
2017-11-23T05:52:00.510Z,81.59
2017-11-23T05:53:00.475Z,80.83
2017-11-23T05:54:00.444Z,80.92
2017-11-23T05:55:00.611Z,81.12
2017-11-23T05:56:00.366Z,81.21
2017-11-23T05:57:00.330Z,81.88
2017-11-23T05:58:00.296Z,81.88
2017-11-23T05:59:00.271Z,81.68
2017-11-23T06:00:00.224Z,81.78
2017-11-23T06:01:00.187Z,81.88
2017-11-23T06:02:00.625Z,81.97
2017-11-23T06:03:00.121Z,82.26
2017-11-23T06:04:00.079Z,81.59
2017-11-23T06:05:00.044Z,81.25
2017-11-23T06:06:00.014Z,81.15
2017-11-23T06:06:59.972Z,80.39
2017-11-23T06:08:00.074Z,80.49
2017-11-23T06:08:59.911Z,80.58
2017-11-23T06:09:59.861Z,80.30
2017-11-23T06:10:59.829Z,80.58
2017-11-23T06:11:59.794Z,81.44
2017-11-23T06:12:59.758Z,80.39
2017-11-23T06:13:59.723Z,80.87
2017-11-23T06:14:59.687Z,80.77
2017-11-23T06:15:59.652Z,81.15
2017-11-23T06:16:59.616Z,80.96
2017-11-23T06:17:59.581Z,81.15
2017-11-23T06:18:59.544Z,81.54
2017-11-23T06:19:59.508Z,81.54
2017-11-23T06:20:59.477Z,81.44
2017-11-23T06:21:59.442Z,81.06
2017-11-23T06:22:59.401Z,81.25
2017-11-23T06:23:59.368Z,80.58
2017-11-23T06:24:59.329Z,80.58
2017-11-23T06:25:59.296Z,80.77
2017-11-23T06:26:59.259Z,80.77
2017-11-23T06:27:59.226Z,80.87
2017-11-23T06:28:59.190Z,80.58
2017-11-23T06:29:59.154Z,80.39
2017-11-23T06:30:59.442Z,81.15
2017-11-23T06:31:59.081Z,80.68
2017-11-23T06:32:59.046Z,80.58
2017-11-23T06:33:59.017Z,80.68
2017-11-23T06:34:58.975Z,79.35
2017-11-23T06:35:58.939Z,79.38
2017-11-23T06:36:58.904Z,79.72
2017-11-23T06:37:58.869Z,79.63
2017-11-23T06:38:58.834Z,78.81
2017-11-23T06:39:58.800Z,79.10
2017-11-23T06:40:58.762Z,79.44
2017-11-23T06:41:58.728Z,79.00
2017-11-23T06:42:58.691Z,79.48
2017-11-23T06:43:58.682Z,79.44
2017-11-23T06:44:58.669Z,79.57
2017-11-23T06:45:59.532Z,79.63
2017-11-23T06:46:58.551Z,79.48
2017-11-23T06:47:58.516Z,79.57
2017-11-23T06:48:58.479Z,79.25
2017-11-23T06:49:58.448Z,79.72
2017-11-23T06:50:58.409Z,79.57
2017-11-23T06:51:58.373Z,79.57
2017-11-23T06:52:58.342Z,79.82
2017-11-23T06:53:58.302Z,80.49
2017-11-23T06:54:58.266Z,81.15
2017-11-23T06:55:58.243Z,80.39
2017-11-23T06:56:58.196Z,80.68
2017-11-23T06:57:58.162Z,81.73
2017-11-23T06:58:58.125Z,81.06
2017-11-23T06:59:58.090Z,81.44
2017-11-23T07:00:58.062Z,81.92
2017-11-23T07:01:58.018Z,82.59
2017-11-23T07:02:57.984Z,82.59
2017-11-23T07:03:57.950Z,82.97
2017-11-23T07:04:58.037Z,82.49
2017-11-23T07:05:57.878Z,82.40
2017-11-23T07:06:57.843Z,82.40
2017-11-23T07:07:57.806Z,82.68
2017-11-23T07:08:57.772Z,82.49
2017-11-23T07:09:57.994Z,81.73
2017-11-23T07:10:57.712Z,82.49
2017-11-23T07:11:57.667Z,82.59
2017-11-23T07:12:58.128Z,81.82
2017-11-23T07:13:57.595Z,82.01
2017-11-23T07:14:57.625Z,82.49
2017-11-23T07:15:57.583Z,82.59
2017-11-23T07:16:57.485Z,81.44
2017-11-23T07:17:57.454Z,81.06
2017-11-23T07:18:57.418Z,80.62
2017-11-23T07:19:57.381Z,80.43
2017-11-23T07:20:57.346Z,81.01
2017-11-23T07:21:57.312Z,81.67
2017-11-23T07:22:57.276Z,81.54
2017-11-23T07:23:57.241Z,80.81
2017-11-23T07:24:57.204Z,80.43
2017-11-23T07:25:57.167Z,80.62
2017-11-23T07:26:57.132Z,79.77
2017-11-23T07:27:57.098Z,78.91
2017-11-23T07:28:57.061Z,78.81
2017-11-23T07:29:57.028Z,78.37
2017-11-23T07:30:56.993Z,78.56
2017-11-23T07:31:56.959Z,77.99
2017-11-23T07:32:56.924Z,77.99
2017-11-23T07:33:56.887Z,78.66
2017-11-23T07:34:56.851Z,78.18
2017-11-23T07:35:56.819Z,77.32
2017-11-23T07:36:56.783Z,78.37
2017-11-23T07:37:56.749Z,78.47
2017-11-23T07:38:56.712Z,78.56
2017-11-23T07:39:56.678Z,78.56
2017-11-23T07:40:56.644Z,78.47
2017-11-23T07:41:56.611Z,78.56
2017-11-23T07:42:56.573Z,78.56
2017-11-23T07:43:56.556Z,79.23
2017-11-23T07:44:56.504Z,78.94
2017-11-23T07:45:56.471Z,79.10
2017-11-23T07:46:56.436Z,78.94
2017-11-23T07:47:56.400Z,79.10
2017-11-23T07:48:56.363Z,79.77
2017-11-23T07:49:56.331Z,78.56
2017-11-23T07:50:56.299Z,78.18
2017-11-23T07:51:56.264Z,77.51
2017-11-23T07:52:56.229Z,76.18
2017-11-23T07:53:56.195Z,76.18
2017-11-23T07:54:56.159Z,76.75
2017-11-23T07:55:56.123Z,76.60
2017-11-23T07:56:56.092Z,76.12
2017-11-23T07:57:56.058Z,76.03
2017-11-23T07:58:56.022Z,75.26
2017-11-23T07:59:55.988Z,75.74
2017-11-23T08:00:55.955Z,74.88
2017-11-23T08:01:55.921Z,74.78
2017-11-23T08:02:55.889Z,74.69
2017-11-23T08:03:55.853Z,75.35
2017-11-23T08:04:55.820Z,74.88
2017-11-23T08:05:55.787Z,74.24
2017-11-23T08:06:55.752Z,74.05
2017-11-23T08:07:55.719Z,74.05
2017-11-23T08:08:55.685Z,73.67
2017-11-23T08:09:55.652Z,72.91
2017-11-23T08:10:55.623Z,72.28
2017-11-23T08:11:55.585Z,72.08
2017-11-23T08:12:55.553Z,71.61
2017-11-23T08:13:55.536Z,71.42
2017-11-23T08:14:55.489Z,70.68
2017-11-23T08:15:55.457Z,70.59
2017-11-23T08:16:55.428Z,69.82
2017-11-23T08:17:55.398Z,69.64
2017-11-23T08:18:55.363Z,69.29
2017-11-23T08:19:55.338Z,68.62
2017-11-23T08:20:55.302Z,67.85
2017-11-23T08:21:55.270Z,68.04
2017-11-23T08:22:55.241Z,67.47
2017-11-23T08:23:55.211Z,67.18
2017-11-23T08:24:55.182Z,67.21
2017-11-23T08:25:55.153Z,67.02
2017-11-23T08:26:55.123Z,67.31
2017-11-23T08:27:55.094Z,66.74
2017-11-23T08:28:55.068Z,66.54
2017-11-23T08:29:55.037Z,65.97
2017-11-23T08:30:55.008Z,65.88
2017-11-23T08:31:54.983Z,66.09
2017-11-23T08:32:54.953Z,65.52
2017-11-23T08:33:54.924Z,64.18
2017-11-23T08:34:54.897Z,64.40
2017-11-23T08:35:54.870Z,63.92
2017-11-23T08:36:54.842Z,63.45
2017-11-23T08:37:54.815Z,62.96
2017-11-23T08:38:54.787Z,63.54
2017-11-23T08:39:54.760Z,62.96
2017-11-23T08:40:54.733Z,62.10
2017-11-23T08:41:54.706Z,61.43
2017-11-23T08:42:54.679Z,61.66
2017-11-23T08:43:54.654Z,61.72
2017-11-23T08:44:54.626Z,61.94
2017-11-23T08:45:54.598Z,61.53
2017-11-23T08:46:54.573Z,63.60
2017-11-23T08:47:54.545Z,64.82
2017-11-23T08:48:54.518Z,65.88
2017-11-23T08:49:54.492Z,66.35
2017-11-23T08:50:54.463Z,66.03
2017-11-23T08:51:54.438Z,66.80
2017-11-23T08:52:54.401Z,66.99
2017-11-23T08:53:54.378Z,66.93
2017-11-23T08:54:54.351Z,66.25
2017-11-23T08:55:54.320Z,64.66
2017-11-23T08:56:54.290Z,63.60
2017-11-23T08:57:54.263Z,63.45
2017-11-23T08:58:54.237Z,62.84
2017-11-23T08:59:54.207Z,62.10
2017-11-23T09:00:54.177Z,62.10
2017-11-23T09:01:54.192Z,61.85
2017-11-23T09:02:54.121Z,61.18
2017-11-23T09:03:54.093Z,61.37
2017-11-23T09:04:54.066Z,60.60
2017-11-23T09:05:54.039Z,60.60
2017-11-23T09:06:54.014Z,61.02
2017-11-23T09:07:53.993Z,60.41
2017-11-23T09:08:54.037Z,61.63
2017-11-23T09:09:53.933Z,61.63
2017-11-23T09:10:53.906Z,61.66
2017-11-23T09:11:53.877Z,61.46
2017-11-23T09:12:53.850Z,60.12
2017-11-23T09:13:53.825Z,61.63
2017-11-23T09:14:53.796Z,61.82
2017-11-23T09:15:54.512Z,62.77
2017-11-23T09:16:53.742Z,62.23
2017-11-23T09:17:53.714Z,61.94
2017-11-23T09:18:53.687Z,60.89
2017-11-23T09:19:53.659Z,59.77
2017-11-23T09:20:53.654Z,59.67
2017-11-23T09:21:53.682Z,60.44
2017-11-23T09:22:53.605Z,58.91
2017-11-23T09:23:53.570Z,59.09
2017-11-23T09:24:53.529Z,59.09
2017-11-23T09:25:53.504Z,58.42
2017-11-23T09:26:53.585Z,58.84
2017-11-23T09:27:53.463Z,58.17
2017-11-23T09:28:53.434Z,58.07
2017-11-23T09:29:53.998Z,58.29
2017-11-23T09:30:53.386Z,57.62
2017-11-23T09:31:53.353Z,56.85
2017-11-23T09:32:53.423Z,57.04
2017-11-23T09:33:53.305Z,56.40
2017-11-23T09:34:53.286Z,55.91
2017-11-23T09:35:53.280Z,55.46
2017-11-23T09:36:53.236Z,54.79
2017-11-23T09:37:53.212Z,55.05
2017-11-23T09:38:53.194Z,55.05
2017-11-23T09:39:53.164Z,54.99
2017-11-23T09:40:53.149Z,54.31
2017-11-23T09:41:53.117Z,54.89
2017-11-23T09:42:53.095Z,55.46
2017-11-23T09:43:53.074Z,54.89
2017-11-23T09:44:53.051Z,54.41
2017-11-23T09:45:53.024Z,54.05
2017-11-23T09:46:53.006Z,53.66
2017-11-23T09:47:52.981Z,53.28
2017-11-23T09:48:52.986Z,53.76
2017-11-23T09:49:52.935Z,53.66
2017-11-23T09:50:52.916Z,53.45
2017-11-23T09:51:52.892Z,54.12
2017-11-23T09:52:52.878Z,54.05
2017-11-23T09:53:52.850Z,53.47
2017-11-23T09:54:52.825Z,53.02
2017-11-23T09:55:52.806Z,52.73
2017-11-23T09:56:52.784Z,52.34
2017-11-23T09:57:52.770Z,52.25
2017-11-23T09:58:52.742Z,50.85
2017-11-23T09:59:52.730Z,49.17
2017-11-23T10:00:52.699Z,48.88
2017-11-23T10:01:52.676Z,48.66
2017-11-23T10:02:52.656Z,48.95
2017-11-23T10:03:52.650Z,49.41
2017-11-23T10:04:52.612Z,50.15
2017-11-23T10:05:52.600Z,51.09
2017-11-23T10:06:52.566Z,52.32
2017-11-23T10:07:52.543Z,52.44
2017-11-23T10:08:52.520Z,51.79
2017-11-23T10:09:52.502Z,50.40
2017-11-23T10:10:52.475Z,49.46
2017-11-23T10:11:52.457Z,48.03
2017-11-23T10:12:52.480Z,47.85
2017-11-23T10:13:52.414Z,48.40
2017-11-23T10:14:52.390Z,48.47
2017-11-23T10:15:52.370Z,49.53
2017-11-23T10:16:52.350Z,50.37
2017-11-23T10:17:52.324Z,51.86
2017-11-23T10:18:52.299Z,52.61
2017-11-23T10:19:52.281Z,54.89
2017-11-23T10:20:52.254Z,55.27
2017-11-23T10:21:52.230Z,55.94
2017-11-23T10:22:52.213Z,56.01
2017-11-23T10:23:52.184Z,57.59
2017-11-23T10:24:52.157Z,58.74
2017-11-23T10:25:52.135Z,59.48
2017-11-23T10:26:52.096Z,60.63
2017-11-23T10:27:52.073Z,62.23
2017-11-23T10:28:52.046Z,63.67
2017-11-23T10:29:52.016Z,64.02
2017-11-23T10:30:51.991Z,64.69
2017-11-23T10:31:51.961Z,65.65
2017-11-23T10:32:51.933Z,65.46
2017-11-23T10:33:51.904Z,66.22
2017-11-23T10:34:51.873Z,66.38
2017-11-23T10:35:51.842Z,65.81
2017-11-23T10:36:51.817Z,66.86
2017-11-23T10:37:51.783Z,67.05
2017-11-23T10:38:51.752Z,67.05
2017-11-23T10:39:51.721Z,66.77
2017-11-23T10:40:51.701Z,67.91
2017-11-23T10:41:51.660Z,68.49
2017-11-23T10:42:51.638Z,68.59
2017-11-23T10:43:51.599Z,68.78
2017-11-23T10:44:51.568Z,70.41
2017-11-23T10:45:51.542Z,70.85
2017-11-23T10:46:51.505Z,72.38
2017-11-23T10:47:51.478Z,73.05
2017-11-23T10:48:51.449Z,73.44
2017-11-23T10:49:51.411Z,74.97
2017-11-23T10:50:51.381Z,75.64
2017-11-23T10:51:51.344Z,76.56
2017-11-23T10:52:51.316Z,77.36
2017-11-23T10:53:51.286Z,77.94
2017-11-23T10:54:51.259Z,77.55
2017-11-23T10:55:51.221Z,76.98
2017-11-23T10:56:51.191Z,77.84
2017-11-23T10:57:51.161Z,78.32
2017-11-23T10:58:51.159Z,78.61
2017-11-23T10:59:51.101Z,78.61
2017-11-23T11:00:51.067Z,78.51
2017-11-23T11:01:51.036Z,78.42
2017-11-23T11:02:50.998Z,78.22
2017-11-23T11:03:50.968Z,78.42
2017-11-23T11:04:50.933Z,78.42
2017-11-23T11:05:50.905Z,78.80
2017-11-23T11:06:50.871Z,78.51
2017-11-23T11:07:50.868Z,78.42
2017-11-23T11:08:50.810Z,78.32
2017-11-23T11:09:50.778Z,78.70
2017-11-23T11:10:50.750Z,78.89
2017-11-23T11:11:50.715Z,78.89
2017-11-23T11:12:50.685Z,78.42
2017-11-23T11:13:50.655Z,78.42
2017-11-23T11:14:50.622Z,78.03
2017-11-23T11:15:50.593Z,77.59
2017-11-23T11:16:50.560Z,75.62
2017-11-23T11:17:50.530Z,73.07
2017-11-23T11:18:50.497Z,72.68
2017-11-23T11:19:50.482Z,71.66
2017-11-23T11:20:50.440Z,71.37
2017-11-23T11:21:50.412Z,70.84
2017-11-23T11:22:50.383Z,68.95
2017-11-23T11:23:50.355Z,67.64
2017-11-23T11:24:50.326Z,67.07
2017-11-23T11:25:50.306Z,66.52
2017-11-23T11:26:50.273Z,63.22
2017-11-23T11:27:50.247Z,60.94
2017-11-23T11:28:50.223Z,59.59
2017-11-23T11:29:50.200Z,60.42
2017-11-23T11:30:50.174Z,59.85
2017-11-23T11:31:50.154Z,60.78
2017-11-23T11:32:50.123Z,60.14
2017-11-23T11:33:50.099Z,60.91
2017-11-23T11:34:50.073Z,60.72
2017-11-23T11:35:50.051Z,60.11
2017-11-23T11:36:50.042Z,61.07
2017-11-23T11:37:49.998Z,62.38
2017-11-23T11:38:49.974Z,63.99
2017-11-23T11:39:49.951Z,63.79
2017-11-23T11:40:49.924Z,64.85
2017-11-23T11:41:49.899Z,64.85
2017-11-23T11:42:49.881Z,64.28
2017-11-23T11:43:49.849Z,64.72
2017-11-23T11:44:49.818Z,66.42
2017-11-23T11:45:49.800Z,67.57
2017-11-23T11:46:49.768Z,68.34
2017-11-23T11:47:50.175Z,68.30
2017-11-23T11:48:49.716Z,69.93
2017-11-23T11:49:49.686Z,68.88
2017-11-23T11:50:49.664Z,69.65
2017-11-23T11:51:49.630Z,68.53
2017-11-23T11:52:49.602Z,68.98
2017-11-23T11:53:49.582Z,69.74
2017-11-23T11:54:49.545Z,69.56
2017-11-23T11:55:49.518Z,70.48
2017-11-23T11:56:49.487Z,71.15
2017-11-23T11:57:49.463Z,71.82
2017-11-23T11:58:49.431Z,72.39
2017-11-23T11:59:49.406Z,73.13
2017-11-23T12:00:49.373Z,73.61
2017-11-23T12:01:49.346Z,73.99
2017-11-23T12:02:49.320Z,74.62
2017-11-23T12:03:49.284Z,74.72
2017-11-23T12:04:49.254Z,75.20
2017-11-23T12:05:49.230Z,76.06
2017-11-23T12:06:49.542Z,76.54
2017-11-23T12:07:49.162Z,75.87
2017-11-23T12:08:49.132Z,75.87
2017-11-23T12:09:49.100Z,77.21
2017-11-23T12:10:49.074Z,77.50
2017-11-23T12:11:49.040Z,77.88
2017-11-23T12:12:49.008Z,78.07
2017-11-23T12:13:48.978Z,77.59
2017-11-23T12:14:48.947Z,77.59
2017-11-23T12:15:48.915Z,76.64
2017-11-23T12:16:48.889Z,77.11
2017-11-23T12:17:49.772Z,76.82
2017-11-23T12:18:48.822Z,76.73
2017-11-23T12:19:48.790Z,76.25
2017-11-23T12:20:48.757Z,77.40
2017-11-23T12:21:48.741Z,77.02
2017-11-23T12:22:48.694Z,77.50
2017-11-23T12:23:48.664Z,76.44
2017-11-23T12:24:48.629Z,75.68
2017-11-23T12:25:48.609Z,76.64
2017-11-23T12:26:48.570Z,78.07
2017-11-23T12:27:48.538Z,78.27
2017-11-23T12:28:48.903Z,78.03
2017-11-23T12:29:48.482Z,78.45
2017-11-23T12:30:48.443Z,78.36
2017-11-23T12:31:48.412Z,77.59
2017-11-23T12:32:48.382Z,76.54
2017-11-23T12:33:48.348Z,77.02
2017-11-23T12:34:48.320Z,77.69
2017-11-23T12:35:48.319Z,78.55
2017-11-23T12:36:48.252Z,78.36
2017-11-23T12:37:48.227Z,77.69
2017-11-23T12:38:49.131Z,78.74
2017-11-23T12:39:48.164Z,78.84
2017-11-23T12:40:48.137Z,78.22
2017-11-23T12:41:48.101Z,79.28
2017-11-23T12:42:48.268Z,79.08
2017-11-23T12:43:48.034Z,78.80
2017-11-23T12:44:47.998Z,79.75
2017-11-23T12:45:47.973Z,78.99
2017-11-23T12:46:47.940Z,79.37
2017-11-23T12:47:47.917Z,79.57
2017-11-23T12:48:47.877Z,79.28
2017-11-23T12:49:47.845Z,79.66
2017-11-23T12:50:48.352Z,78.32
2017-11-23T12:51:47.778Z,78.80